sensor_id;sensor_type;location;lat;lon;timestamp;temperature;humidity
326;DHT22;150;52.352;14.058;2023-11-19T00:00:58;6.50;36.50
326;DHT22;150;52.352;14.058;2023-11-19T00:03:27;6.50;35.90
326;DHT22;150;52.352;14.058;2023-11-19T00:05:53;6.50;36.10
326;DHT22;150;52.352;14.058;2023-11-19T00:08:23;6.60;36.00
326;DHT22;150;52.352;14.058;2023-11-19T00:10:55;6.70;36.00
326;DHT22;150;52.352;14.058;2023-11-19T00:13:24;6.70;36.00
326;DHT22;150;52.352;14.058;2023-11-19T00:15:54;6.70;35.60
326;DHT22;150;52.352;14.058;2023-11-19T00:18:22;6.70;35.40
326;DHT22;150;52.352;14.058;2023-11-19T00:20:50;6.50;35.50
326;DHT22;150;52.352;14.058;2023-11-19T00:23:21;6.50;35.90
326;DHT22;150;52.352;14.058;2023-11-19T00:25:51;6.50;36.00
326;DHT22;150;52.352;14.058;2023-11-19T00:28:18;6.50;35.90
326;DHT22;150;52.352;14.058;2023-11-19T00:30:46;6.50;36.10
326;DHT22;150;52.352;14.058;2023-11-19T00:33:13;6.50;35.90
326;DHT22;150;52.352;14.058;2023-11-19T00:35:39;6.60;36.00
326;DHT22;150;52.352;14.058;2023-11-19T00:38:07;6.60;35.60
326;DHT22;150;52.352;14.058;2023-11-19T00:40:34;6.60;36.00
326;DHT22;150;52.352;14.058;2023-11-19T00:43:03;6.70;35.50
326;DHT22;150;52.352;14.058;2023-11-19T00:45:29;6.70;35.00
326;DHT22;150;52.352;14.058;2023-11-19T00:47:56;6.70;35.00
326;DHT22;150;52.352;14.058;2023-11-19T00:50:25;6.70;35.70
326;DHT22;150;52.352;14.058;2023-11-19T00:52:51;6.70;34.60
326;DHT22;150;52.352;14.058;2023-11-19T00:55:19;6.70;34.80
326;DHT22;150;52.352;14.058;2023-11-19T00:57:46;6.60;35.10
326;DHT22;150;52.352;14.058;2023-11-19T01:00:18;6.70;34.90
326;DHT22;150;52.352;14.058;2023-11-19T01:02:49;6.60;34.50
326;DHT22;150;52.352;14.058;2023-11-19T01:05:16;6.60;34.80
326;DHT22;150;52.352;14.058;2023-11-19T01:07:46;6.60;35.50
326;DHT22;150;52.352;14.058;2023-11-19T01:10:13;6.50;34.90
326;DHT22;150;52.352;14.058;2023-11-19T01:12:42;6.60;35.20
326;DHT22;150;52.352;14.058;2023-11-19T01:15:09;6.60;35.50
326;DHT22;150;52.352;14.058;2023-11-19T01:17:37;6.70;35.10
326;DHT22;150;52.352;14.058;2023-11-19T01:20:05;6.70;34.70
326;DHT22;150;52.352;14.058;2023-11-19T01:22:32;6.70;34.80
326;DHT22;150;52.352;14.058;2023-11-19T01:25:01;6.70;34.50
326;DHT22;150;52.352;14.058;2023-11-19T01:27:31;6.70;34.90
326;DHT22;150;52.352;14.058;2023-11-19T01:30:01;6.70;34.50
326;DHT22;150;52.352;14.058;2023-11-19T01:32:30;6.60;35.20
326;DHT22;150;52.352;14.058;2023-11-19T01:34:56;6.60;35.30
326;DHT22;150;52.352;14.058;2023-11-19T01:37:23;6.60;34.90
326;DHT22;150;52.352;14.058;2023-11-19T01:39:50;6.60;34.80
326;DHT22;150;52.352;14.058;2023-11-19T01:42:16;6.60;35.10
326;DHT22;150;52.352;14.058;2023-11-19T01:44:55;6.60;34.90
326;DHT22;150;52.352;14.058;2023-11-19T01:47:25;6.50;35.10
326;DHT22;150;52.352;14.058;2023-11-19T01:49:52;6.60;35.40
326;DHT22;150;52.352;14.058;2023-11-19T01:52:19;6.60;35.00
326;DHT22;150;52.352;14.058;2023-11-19T01:54:49;6.70;35.20
326;DHT22;150;52.352;14.058;2023-11-19T01:57:16;6.60;35.20
326;DHT22;150;52.352;14.058;2023-11-19T01:59:43;6.70;36.10
326;DHT22;150;52.352;14.058;2023-11-19T02:02:21;6.70;34.90
326;DHT22;150;52.352;14.058;2023-11-19T02:04:59;6.70;34.90
326;DHT22;150;52.352;14.058;2023-11-19T02:07:26;6.70;34.90
326;DHT22;150;52.352;14.058;2023-11-19T02:09:54;6.80;34.80
326;DHT22;150;52.352;14.058;2023-11-19T02:12:22;6.80;35.10
326;DHT22;150;52.352;14.058;2023-11-19T02:14:54;6.80;35.30
326;DHT22;150;52.352;14.058;2023-11-19T02:17:27;6.80;35.10
326;DHT22;150;52.352;14.058;2023-11-19T02:19:56;6.70;34.90
326;DHT22;150;52.352;14.058;2023-11-19T02:22:28;6.80;35.00
326;DHT22;150;52.352;14.058;2023-11-19T02:25:00;6.80;34.90
326;DHT22;150;52.352;14.058;2023-11-19T02:27:52;6.80;34.80
326;DHT22;150;52.352;14.058;2023-11-19T02:30:22;6.80;34.80
326;DHT22;150;52.352;14.058;2023-11-19T02:32:53;6.80;34.90
326;DHT22;150;52.352;14.058;2023-11-19T02:35:28;6.80;34.90
326;DHT22;150;52.352;14.058;2023-11-19T02:38:02;6.80;35.10
326;DHT22;150;52.352;14.058;2023-11-19T02:40:32;6.80;35.60
326;DHT22;150;52.352;14.058;2023-11-19T02:43:02;6.90;35.20
326;DHT22;150;52.352;14.058;2023-11-19T02:45:39;6.80;35.30
326;DHT22;150;52.352;14.058;2023-11-19T02:48:20;6.90;35.50
326;DHT22;150;52.352;14.058;2023-11-19T02:50:46;6.90;35.80
326;DHT22;150;52.352;14.058;2023-11-19T02:53:16;6.90;35.90
326;DHT22;150;52.352;14.058;2023-11-19T02:55:46;6.90;36.20
326;DHT22;150;52.352;14.058;2023-11-19T02:58:17;6.90;36.20
326;DHT22;150;52.352;14.058;2023-11-19T03:00:51;6.90;36.20
326;DHT22;150;52.352;14.058;2023-11-19T03:03:25;6.80;36.10
326;DHT22;150;52.352;14.058;2023-11-19T03:06:04;6.80;36.30
326;DHT22;150;52.352;14.058;2023-11-19T03:08:31;6.90;36.60
326;DHT22;150;52.352;14.058;2023-11-19T03:10:58;6.90;36.60
326;DHT22;150;52.352;14.058;2023-11-19T03:13:26;6.90;36.80
326;DHT22;150;52.352;14.058;2023-11-19T03:16:01;7.00;36.30
326;DHT22;150;52.352;14.058;2023-11-19T03:18:27;7.00;36.10
326;DHT22;150;52.352;14.058;2023-11-19T03:20:54;7.00;36.30
326;DHT22;150;52.352;14.058;2023-11-19T03:23:23;6.90;36.20
326;DHT22;150;52.352;14.058;2023-11-19T03:25:53;6.80;36.80
326;DHT22;150;52.352;14.058;2023-11-19T03:28:26;6.80;36.80
326;DHT22;150;52.352;14.058;2023-11-19T03:31:00;6.90;37.20
326;DHT22;150;52.352;14.058;2023-11-19T03:33:27;6.90;37.00
326;DHT22;150;52.352;14.058;2023-11-19T03:36:00;6.90;37.40
326;DHT22;150;52.352;14.058;2023-11-19T03:38:27;6.90;37.10
326;DHT22;150;52.352;14.058;2023-11-19T03:40:53;7.00;36.70
326;DHT22;150;52.352;14.058;2023-11-19T03:43:20;7.00;36.50
326;DHT22;150;52.352;14.058;2023-11-19T03:45:47;6.90;36.70
326;DHT22;150;52.352;14.058;2023-11-19T03:48:15;6.90;36.70
326;DHT22;150;52.352;14.058;2023-11-19T03:50:45;7.00;36.30
326;DHT22;150;52.352;14.058;2023-11-19T03:53:14;7.00;36.60
326;DHT22;150;52.352;14.058;2023-11-19T03:55:41;6.90;36.20
326;DHT22;150;52.352;14.058;2023-11-19T03:58:08;6.80;36.90
326;DHT22;150;52.352;14.058;2023-11-19T04:00:35;6.80;36.80
326;DHT22;150;52.352;14.058;2023-11-19T04:03:04;6.90;37.10
326;DHT22;150;52.352;14.058;2023-11-19T04:05:32;6.90;37.50
326;DHT22;150;52.352;14.058;2023-11-19T04:08:06;6.90;36.90
326;DHT22;150;52.352;14.058;2023-11-19T04:10:38;6.90;37.30
326;DHT22;150;52.352;14.058;2023-11-19T04:13:07;6.80;37.40
326;DHT22;150;52.352;14.058;2023-11-19T04:15:34;6.90;37.40
326;DHT22;150;52.352;14.058;2023-11-19T04:18:00;6.90;37.30
326;DHT22;150;52.352;14.058;2023-11-19T04:20:27;7.00;37.70
326;DHT22;150;52.352;14.058;2023-11-19T04:22:55;7.00;37.30
326;DHT22;150;52.352;14.058;2023-11-19T04:25:21;7.00;36.90
326;DHT22;150;52.352;14.058;2023-11-19T04:27:50;7.00;36.70
326;DHT22;150;52.352;14.058;2023-11-19T04:30:16;7.00;37.10
326;DHT22;150;52.352;14.058;2023-11-19T04:32:43;7.00;37.60
326;DHT22;150;52.352;14.058;2023-11-19T04:35:14;6.90;38.30
326;DHT22;150;52.352;14.058;2023-11-19T04:37:44;6.80;38.80
326;DHT22;150;52.352;14.058;2023-11-19T04:40:16;6.80;39.90
326;DHT22;150;52.352;14.058;2023-11-19T04:42:43;6.80;40.50
326;DHT22;150;52.352;14.058;2023-11-19T04:45:10;6.70;41.00
326;DHT22;150;52.352;14.058;2023-11-19T04:47:49;6.60;41.20
326;DHT22;150;52.352;14.058;2023-11-19T04:50:21;6.60;42.50
326;DHT22;150;52.352;14.058;2023-11-19T04:53:16;6.60;42.70
326;DHT22;150;52.352;14.058;2023-11-19T04:56:11;6.50;43.20
326;DHT22;150;52.352;14.058;2023-11-19T04:59:03;6.60;44.10
326;DHT22;150;52.352;14.058;2023-11-19T05:01:33;6.50;44.40
326;DHT22;150;52.352;14.058;2023-11-19T05:04:08;6.60;44.70
326;DHT22;150;52.352;14.058;2023-11-19T05:06:35;6.60;45.20
326;DHT22;150;52.352;14.058;2023-11-19T05:09:04;6.70;45.50
326;DHT22;150;52.352;14.058;2023-11-19T05:11:38;6.80;45.30
326;DHT22;150;52.352;14.058;2023-11-19T05:14:09;6.80;45.10
326;DHT22;150;52.352;14.058;2023-11-19T05:16:41;6.70;45.20
326;DHT22;150;52.352;14.058;2023-11-19T05:19:34;6.60;45.90
326;DHT22;150;52.352;14.058;2023-11-19T05:22:04;6.60;46.40
326;DHT22;150;52.352;14.058;2023-11-19T05:24:36;6.60;46.40
326;DHT22;150;52.352;14.058;2023-11-19T05:27:40;6.70;46.50
326;DHT22;150;52.352;14.058;2023-11-19T05:30:21;6.60;46.50
326;DHT22;150;52.352;14.058;2023-11-19T05:33:02;6.60;46.70
326;DHT22;150;52.352;14.058;2023-11-19T05:35:48;6.60;46.70
326;DHT22;150;52.352;14.058;2023-11-19T05:38:27;6.60;48.00
326;DHT22;150;52.352;14.058;2023-11-19T05:41:01;6.60;47.90
326;DHT22;150;52.352;14.058;2023-11-19T05:43:41;6.60;48.10
326;DHT22;150;52.352;14.058;2023-11-19T05:46:25;6.50;48.00
326;DHT22;150;52.352;14.058;2023-11-19T05:48:57;6.50;48.70
326;DHT22;150;52.352;14.058;2023-11-19T05:51:35;6.60;49.10
326;DHT22;150;52.352;14.058;2023-11-19T05:54:05;6.60;48.90
326;DHT22;150;52.352;14.058;2023-11-19T05:56:41;6.50;49.00
326;DHT22;150;52.352;14.058;2023-11-19T05:59:23;6.50;49.40
326;DHT22;150;52.352;14.058;2023-11-19T06:01:55;6.50;49.70
326;DHT22;150;52.352;14.058;2023-11-19T06:04:32;6.50;49.80
326;DHT22;150;52.352;14.058;2023-11-19T06:07:14;6.50;50.00
326;DHT22;150;52.352;14.058;2023-11-19T06:09:47;6.50;50.20
326;DHT22;150;52.352;14.058;2023-11-19T06:12:14;6.50;50.50
326;DHT22;150;52.352;14.058;2023-11-19T06:14:45;6.40;50.90
326;DHT22;150;52.352;14.058;2023-11-19T06:17:12;6.50;51.40
326;DHT22;150;52.352;14.058;2023-11-19T06:19:45;6.50;51.40
326;DHT22;150;52.352;14.058;2023-11-19T06:22:35;6.60;50.80
326;DHT22;150;52.352;14.058;2023-11-19T06:25:13;6.60;50.40
326;DHT22;150;52.352;14.058;2023-11-19T06:27:52;6.60;50.40
326;DHT22;150;52.352;14.058;2023-11-19T06:30:24;6.60;50.10
326;DHT22;150;52.352;14.058;2023-11-19T06:32:51;6.60;50.30
326;DHT22;150;52.352;14.058;2023-11-19T06:35:17;6.60;50.40
326;DHT22;150;52.352;14.058;2023-11-19T06:37:44;6.60;50.40
326;DHT22;150;52.352;14.058;2023-11-19T06:40:13;6.60;50.60
326;DHT22;150;52.352;14.058;2023-11-19T06:42:41;6.50;50.90
326;DHT22;150;52.352;14.058;2023-11-19T06:45:08;6.50;50.90
326;DHT22;150;52.352;14.058;2023-11-19T06:47:37;6.50;51.40
326;DHT22;150;52.352;14.058;2023-11-19T06:50:05;6.50;51.30
326;DHT22;150;52.352;14.058;2023-11-19T06:52:32;6.40;51.30
326;DHT22;150;52.352;14.058;2023-11-19T06:54:59;6.40;51.30
326;DHT22;150;52.352;14.058;2023-11-19T06:57:26;6.40;51.60
326;DHT22;150;52.352;14.058;2023-11-19T06:59:53;6.50;52.30
326;DHT22;150;52.352;14.058;2023-11-19T07:02:20;6.50;51.70
326;DHT22;150;52.352;14.058;2023-11-19T07:04:48;6.60;52.20
326;DHT22;150;52.352;14.058;2023-11-19T07:07:14;6.60;51.60
326;DHT22;150;52.352;14.058;2023-11-19T07:09:41;6.60;51.80
326;DHT22;150;52.352;14.058;2023-11-19T07:12:08;6.60;51.50
326;DHT22;150;52.352;14.058;2023-11-19T07:14:35;6.60;51.50
326;DHT22;150;52.352;14.058;2023-11-19T07:17:01;6.70;52.00
326;DHT22;150;52.352;14.058;2023-11-19T07:19:28;6.70;51.50
326;DHT22;150;52.352;14.058;2023-11-19T07:21:56;6.70;51.50
326;DHT22;150;52.352;14.058;2023-11-19T07:24:23;6.70;51.60
326;DHT22;150;52.352;14.058;2023-11-19T07:26:50;6.60;52.40
326;DHT22;150;52.352;14.058;2023-11-19T07:29:19;6.60;52.80
326;DHT22;150;52.352;14.058;2023-11-19T07:31:48;6.60;53.50
326;DHT22;150;52.352;14.058;2023-11-19T07:34:25;6.70;53.40
326;DHT22;150;52.352;14.058;2023-11-19T07:37:07;6.60;53.60
326;DHT22;150;52.352;14.058;2023-11-19T07:39:37;6.70;53.80
326;DHT22;150;52.352;14.058;2023-11-19T07:42:06;6.80;53.30
326;DHT22;150;52.352;14.058;2023-11-19T07:44:40;6.80;53.30
326;DHT22;150;52.352;14.058;2023-11-19T07:47:13;6.80;53.20
326;DHT22;150;52.352;14.058;2023-11-19T07:49:43;6.80;53.30
326;DHT22;150;52.352;14.058;2023-11-19T07:52:11;6.80;53.60
326;DHT22;150;52.352;14.058;2023-11-19T07:54:39;6.80;54.00
326;DHT22;150;52.352;14.058;2023-11-19T07:57:06;6.90;54.70
326;DHT22;150;52.352;14.058;2023-11-19T07:59:35;6.90;54.00
326;DHT22;150;52.352;14.058;2023-11-19T08:02:04;7.00;53.80
326;DHT22;150;52.352;14.058;2023-11-19T08:04:33;7.10;53.70
326;DHT22;150;52.352;14.058;2023-11-19T08:07:00;7.10;53.50
326;DHT22;150;52.352;14.058;2023-11-19T08:09:43;7.10;53.50
326;DHT22;150;52.352;14.058;2023-11-19T08:12:10;7.10;53.90
326;DHT22;150;52.352;14.058;2023-11-19T08:14:45;7.20;54.10
326;DHT22;150;52.352;14.058;2023-11-19T08:17:19;7.40;54.00
326;DHT22;150;52.352;14.058;2023-11-19T08:19:51;7.40;53.70
326;DHT22;150;52.352;14.058;2023-11-19T08:22:18;7.40;53.20
326;DHT22;150;52.352;14.058;2023-11-19T08:24:46;7.50;53.30
326;DHT22;150;52.352;14.058;2023-11-19T08:27:15;7.60;52.80
326;DHT22;150;52.352;14.058;2023-11-19T08:29:42;7.60;52.30
326;DHT22;150;52.352;14.058;2023-11-19T08:32:11;7.60;52.30
326;DHT22;150;52.352;14.058;2023-11-19T08:34:38;7.60;52.30
326;DHT22;150;52.352;14.058;2023-11-19T08:37:04;7.50;52.20
326;DHT22;150;52.352;14.058;2023-11-19T08:39:31;7.50;52.40
326;DHT22;150;52.352;14.058;2023-11-19T08:42:11;7.60;52.30
326;DHT22;150;52.352;14.058;2023-11-19T08:44:50;7.60;52.70
326;DHT22;150;52.352;14.058;2023-11-19T08:47:19;7.60;53.10
326;DHT22;150;52.352;14.058;2023-11-19T08:49:48;7.60;53.50
326;DHT22;150;52.352;14.058;2023-11-19T08:52:14;7.80;53.50
326;DHT22;150;52.352;14.058;2023-11-19T08:54:53;7.80;53.00
326;DHT22;150;52.352;14.058;2023-11-19T08:57:24;7.80;53.40
326;DHT22;150;52.352;14.058;2023-11-19T08:59:51;7.90;53.20
326;DHT22;150;52.352;14.058;2023-11-19T09:02:42;7.90;53.10
326;DHT22;150;52.352;14.058;2023-11-19T09:05:09;8.00;52.60
326;DHT22;150;52.352;14.058;2023-11-19T09:07:36;8.10;52.70
326;DHT22;150;52.352;14.058;2023-11-19T09:10:08;8.10;52.70
326;DHT22;150;52.352;14.058;2023-11-19T09:12:45;8.20;53.00
326;DHT22;150;52.352;14.058;2023-11-19T09:15:32;8.30;53.60
326;DHT22;150;52.352;14.058;2023-11-19T09:17:59;8.40;52.90
326;DHT22;150;52.352;14.058;2023-11-19T09:20:38;8.50;53.00
326;DHT22;150;52.352;14.058;2023-11-19T09:23:11;8.60;53.10
326;DHT22;150;52.352;14.058;2023-11-19T09:25:40;8.70;53.20
326;DHT22;150;52.352;14.058;2023-11-19T09:28:27;8.70;53.20
326;DHT22;150;52.352;14.058;2023-11-19T09:31:28;8.70;52.70
326;DHT22;150;52.352;14.058;2023-11-19T09:34:51;8.80;53.00
326;DHT22;150;52.352;14.058;2023-11-19T09:37:31;8.80;53.20
326;DHT22;150;52.352;14.058;2023-11-19T09:40:20;8.90;53.40
326;DHT22;150;52.352;14.058;2023-11-19T09:46:15;9.10;53.50
326;DHT22;150;52.352;14.058;2023-11-19T09:48:58;9.20;53.60
326;DHT22;150;52.352;14.058;2023-11-19T09:51:57;9.20;53.60
326;DHT22;150;52.352;14.058;2023-11-19T09:55:00;9.30;53.70
326;DHT22;150;52.352;14.058;2023-11-19T09:57:35;9.30;53.90
326;DHT22;150;52.352;14.058;2023-11-19T10:00:33;9.40;53.80
326;DHT22;150;52.352;14.058;2023-11-19T10:03:12;9.50;53.80
326;DHT22;150;52.352;14.058;2023-11-19T10:05:46;9.50;53.80
326;DHT22;150;52.352;14.058;2023-11-19T10:08:23;9.50;54.00
326;DHT22;150;52.352;14.058;2023-11-19T10:11:12;9.60;55.10
326;DHT22;150;52.352;14.058;2023-11-19T10:25:23;9.60;55.90
326;DHT22;150;52.352;14.058;2023-11-19T10:35:23;10.30;55.40
326;DHT22;150;52.352;14.058;2023-11-19T19:24:40;11.90;52.30
326;DHT22;150;52.352;14.058;2023-11-19T19:27:24;11.90;52.00
326;DHT22;150;52.352;14.058;2023-11-19T19:33:17;11.80;52.00
326;DHT22;150;52.352;14.058;2023-11-19T19:36:09;11.80;51.90
326;DHT22;150;52.352;14.058;2023-11-19T19:39:27;11.80;52.10
326;DHT22;150;52.352;14.058;2023-11-19T19:42:23;11.80;52.10
326;DHT22;150;52.352;14.058;2023-11-19T19:49:47;11.70;52.70
326;DHT22;150;52.352;14.058;2023-11-19T19:52:53;11.60;52.70
326;DHT22;150;52.352;14.058;2023-11-19T19:59:11;11.50;53.00
326;DHT22;150;52.352;14.058;2023-11-19T20:01:38;11.50;53.00
326;DHT22;150;52.352;14.058;2023-11-19T20:04:05;11.40;53.00
326;DHT22;150;52.352;14.058;2023-11-19T20:06:36;11.40;53.00
326;DHT22;150;52.352;14.058;2023-11-19T20:09:03;11.50;52.70
326;DHT22;150;52.352;14.058;2023-11-19T20:11:29;11.40;52.70
326;DHT22;150;52.352;14.058;2023-11-19T20:13:58;11.50;52.90
326;DHT22;150;52.352;14.058;2023-11-19T20:16:26;11.50;52.90
326;DHT22;150;52.352;14.058;2023-11-19T20:18:53;11.40;52.30
326;DHT22;150;52.352;14.058;2023-11-19T20:21:20;11.50;52.40
326;DHT22;150;52.352;14.058;2023-11-19T20:23:46;11.50;52.70
326;DHT22;150;52.352;14.058;2023-11-19T20:26:13;11.50;52.50
326;DHT22;150;52.352;14.058;2023-11-19T20:28:44;11.40;52.60
326;DHT22;150;52.352;14.058;2023-11-19T20:31:11;11.50;52.70
326;DHT22;150;52.352;14.058;2023-11-19T20:33:39;11.40;53.00
326;DHT22;150;52.352;14.058;2023-11-19T20:36:09;11.40;53.30
326;DHT22;150;52.352;14.058;2023-11-19T20:38:35;11.40;53.30
326;DHT22;150;52.352;14.058;2023-11-19T20:41:02;11.40;53.50
326;DHT22;150;52.352;14.058;2023-11-19T20:43:29;11.40;53.40
326;DHT22;150;52.352;14.058;2023-11-19T20:45:59;11.50;53.40
326;DHT22;150;52.352;14.058;2023-11-19T20:48:25;11.50;53.40
326;DHT22;150;52.352;14.058;2023-11-19T20:50:53;11.50;53.60
326;DHT22;150;52.352;14.058;2023-11-19T20:53:20;11.50;53.20
326;DHT22;150;52.352;14.058;2023-11-19T20:55:47;11.60;53.20
326;DHT22;150;52.352;14.058;2023-11-19T20:58:14;11.60;52.40
326;DHT22;150;52.352;14.058;2023-11-19T21:00:41;11.50;53.10
326;DHT22;150;52.352;14.058;2023-11-19T21:03:08;11.50;53.20
326;DHT22;150;52.352;14.058;2023-11-19T21:05:38;11.50;53.00
326;DHT22;150;52.352;14.058;2023-11-19T21:08:10;11.50;53.00
326;DHT22;150;52.352;14.058;2023-11-19T21:10:36;11.50;53.30
326;DHT22;150;52.352;14.058;2023-11-19T21:13:03;11.50;53.50
326;DHT22;150;52.352;14.058;2023-11-19T21:15:29;11.60;53.10
326;DHT22;150;52.352;14.058;2023-11-19T21:17:56;11.60;52.90
326;DHT22;150;52.352;14.058;2023-11-19T21:20:23;11.60;52.80
326;DHT22;150;52.352;14.058;2023-11-19T21:22:50;11.60;52.80
326;DHT22;150;52.352;14.058;2023-11-19T21:25:18;11.60;52.50
326;DHT22;150;52.352;14.058;2023-11-19T21:27:44;11.60;52.40
326;DHT22;150;52.352;14.058;2023-11-19T21:30:12;11.60;52.50
326;DHT22;150;52.352;14.058;2023-11-19T21:32:38;11.60;52.60
326;DHT22;150;52.352;14.058;2023-11-19T21:35:05;11.60;52.80
326;DHT22;150;52.352;14.058;2023-11-19T21:37:34;11.50;52.50
326;DHT22;150;52.352;14.058;2023-11-19T21:40:00;11.60;53.30
326;DHT22;150;52.352;14.058;2023-11-19T21:42:28;11.60;53.20
326;DHT22;150;52.352;14.058;2023-11-19T21:44:55;11.60;52.70
326;DHT22;150;52.352;14.058;2023-11-19T21:47:22;11.50;52.60
326;DHT22;150;52.352;14.058;2023-11-19T21:49:49;11.50;52.90
326;DHT22;150;52.352;14.058;2023-11-19T21:52:16;11.40;53.10
326;DHT22;150;52.352;14.058;2023-11-19T21:54:43;11.30;53.60
326;DHT22;150;52.352;14.058;2023-11-19T21:57:10;11.40;53.90
326;DHT22;150;52.352;14.058;2023-11-19T21:59:38;11.30;53.80
326;DHT22;150;52.352;14.058;2023-11-19T22:02:05;11.30;53.90
326;DHT22;150;52.352;14.058;2023-11-19T22:04:33;11.30;54.10
326;DHT22;150;52.352;14.058;2023-11-19T22:07:00;11.30;53.90
326;DHT22;150;52.352;14.058;2023-11-19T22:09:27;11.30;53.90
326;DHT22;150;52.352;14.058;2023-11-19T22:11:53;11.30;54.10
326;DHT22;150;52.352;14.058;2023-11-19T22:14:20;11.30;53.80
326;DHT22;150;52.352;14.058;2023-11-19T22:16:48;11.30;53.90
326;DHT22;150;52.352;14.058;2023-11-19T22:19:15;11.30;53.70
326;DHT22;150;52.352;14.058;2023-11-19T22:21:42;11.30;53.80
326;DHT22;150;52.352;14.058;2023-11-19T22:24:09;11.30;54.40
326;DHT22;150;52.352;14.058;2023-11-19T22:26:37;11.30;54.00
326;DHT22;150;52.352;14.058;2023-11-19T22:29:03;11.30;54.30
326;DHT22;150;52.352;14.058;2023-11-19T22:31:32;11.30;54.40
326;DHT22;150;52.352;14.058;2023-11-19T22:34:00;11.40;54.60
326;DHT22;150;52.352;14.058;2023-11-19T22:36:28;11.30;53.50
326;DHT22;150;52.352;14.058;2023-11-19T22:38:54;11.30;53.70
326;DHT22;150;52.352;14.058;2023-11-19T22:41:21;11.40;53.60
326;DHT22;150;52.352;14.058;2023-11-19T22:43:48;11.30;53.50
326;DHT22;150;52.352;14.058;2023-11-19T22:46:15;11.30;53.60
326;DHT22;150;52.352;14.058;2023-11-19T22:48:42;11.30;53.80
326;DHT22;150;52.352;14.058;2023-11-19T22:51:10;11.40;54.10
326;DHT22;150;52.352;14.058;2023-11-19T22:53:36;11.40;54.50
326;DHT22;150;52.352;14.058;2023-11-19T22:56:04;11.40;54.00
326;DHT22;150;52.352;14.058;2023-11-19T22:58:31;11.40;53.90
326;DHT22;150;52.352;14.058;2023-11-19T23:01:00;11.40;53.90
326;DHT22;150;52.352;14.058;2023-11-19T23:03:27;11.40;54.30
326;DHT22;150;52.352;14.058;2023-11-19T23:05:57;11.40;53.70
326;DHT22;150;52.352;14.058;2023-11-19T23:08:25;11.40;53.70
326;DHT22;150;52.352;14.058;2023-11-19T23:10:51;11.40;53.40
326;DHT22;150;52.352;14.058;2023-11-19T23:13:18;11.50;53.60
326;DHT22;150;52.352;14.058;2023-11-19T23:15:45;11.50;53.70
326;DHT22;150;52.352;14.058;2023-11-19T23:18:11;11.50;54.00
326;DHT22;150;52.352;14.058;2023-11-19T23:20:38;11.40;54.60
326;DHT22;150;52.352;14.058;2023-11-19T23:23:05;11.50;54.10
326;DHT22;150;52.352;14.058;2023-11-19T23:25:33;11.40;54.30
326;DHT22;150;52.352;14.058;2023-11-19T23:27:59;11.40;54.60
326;DHT22;150;52.352;14.058;2023-11-19T23:30:26;11.40;54.50
326;DHT22;150;52.352;14.058;2023-11-19T23:32:52;11.30;54.70
326;DHT22;150;52.352;14.058;2023-11-19T23:35:19;11.30;55.30
326;DHT22;150;52.352;14.058;2023-11-19T23:37:45;11.30;55.50
326;DHT22;150;52.352;14.058;2023-11-19T23:40:12;11.40;55.50
326;DHT22;150;52.352;14.058;2023-11-19T23:42:40;11.40;55.50
326;DHT22;150;52.352;14.058;2023-11-19T23:45:09;11.40;55.50
326;DHT22;150;52.352;14.058;2023-11-19T23:47:36;11.50;55.60
326;DHT22;150;52.352;14.058;2023-11-19T23:50:04;11.50;55.10
326;DHT22;150;52.352;14.058;2023-11-19T23:52:31;11.40;54.50
326;DHT22;150;52.352;14.058;2023-11-19T23:54:58;11.40;54.80
326;DHT22;150;52.352;14.058;2023-11-19T23:57:24;11.50;55.80
326;DHT22;150;52.352;14.058;2023-11-19T23:59:52;11.40;55.30
